Time;durP1;ratioP1;P1;durP2;ratioP2;P2;SDS_P1;SDS_P2;PMS_P1;PMS_P2;Temp;Humidity;BMP_temperature;BMP_pressure;BME280_temperature;BME280_humidity;BME280_pressure;Samples;Min_cycle;Max_cycle;Signal;HPM_P1;HPM_P2
2022/08/13 00:01:05;;;;;;;13.00;10.00;;;;;;;23.04;80.15;98802.16;4956905;28;20164;-87
2022/08/13 00:03:32;;;;;;;11.43;10.23;;;;;;;23.12;79.14;98815.81;4959019;28;20168;-86
2022/08/13 00:06:00;;;;;;;11.97;9.70;;;;;;;23.42;78.59;98851.50;4974158;28;20165;-86
2022/08/13 00:08:26;;;;;;;11.80;9.63;;;;;;;23.41;77.79;98847.22;4974643;28;20538;-86
2022/08/13 00:10:52;;;;;;;11.00;9.90;;;;;;;23.37;78.29;98840.38;4975724;28;20556;-87
2022/08/13 00:13:18;;;;;;;12.20;9.77;;;;;;;22.56;77.93;98706.53;4974774;28;20194;-87
2022/08/13 00:15:46;;;;;;;12.57;9.83;;;;;;;22.81;78.37;98736.25;4974915;28;20172;-85
2022/08/13 00:18:16;;;;;;;11.93;9.90;;;;;;;22.75;78.70;98728.59;4957186;28;20172;-86
2022/08/13 00:20:50;;;;;;;11.23;10.03;;;;;;;23.39;78.29;98833.47;4976168;28;20164;-86
2022/08/13 00:23:18;;;;;;;13.60;10.03;;;;;;;23.07;77.87;98782.31;4979560;28;20171;-87
2022/08/13 00:25:46;;;;;;;12.53;10.10;;;;;;;23.23;77.74;98822.50;4979705;28;20640;-87
2022/08/13 00:28:16;;;;;;;11.93;10.10;;;;;;;22.38;78.02;98696.50;4982597;28;20160;-85
2022/08/13 00:30:42;;;;;;;10.83;9.70;;;;;;;21.36;77.76;98508.94;4985677;28;20543;-87
2022/08/13 00:33:14;;;;;;;13.10;10.17;;;;;;;23.03;77.83;98793.56;4972764;28;20266;-86
2022/08/13 00:35:41;;;;;;;12.43;9.40;;;;;;;21.78;79.28;98597.66;4974962;28;20164;-87
2022/08/13 00:38:16;;;;;;;13.10;10.20;;;;;;;22.37;79.51;98692.19;4973891;28;20218;-87
2022/08/13 00:40:49;;;;;;;11.47;10.13;;;;;;;22.09;78.80;98632.44;4957020;28;20163;-85
2022/08/13 00:43:14;;;;;;;11.40;10.17;;;;;;;22.78;78.76;98745.78;4974093;28;20164;-86
2022/08/13 00:45:40;;;;;;;12.73;10.00;;;;;;;23.01;77.23;98790.16;4956559;28;20175;-86
2022/08/13 00:50:51;;;;;;;13.77;9.83;;;;;;;23.12;79.51;98831.31;4973959;28;20223;-85
2022/08/13 00:53:19;;;;;;;13.27;11.00;;;;;;;22.63;81.78;98777.84;4973495;28;20191;-86
2022/08/13 00:55:48;;;;;;;13.93;11.30;;;;;;;22.25;83.47;98728.47;4973651;28;20172;-86
2022/08/13 00:58:16;;;;;;;13.87;11.73;;;;;;;19.85;85.14;98330.66;4973438;28;20284;-86
2022/08/13 01:00:46;;;;;;;13.83;11.80;;;;;;;22.61;88.85;98813.09;4973924;28;20534;-85
2022/08/13 01:03:12;;;;;;;17.17;12.33;;;;;;;22.54;90.54;98814.06;4973335;28;20288;-86
2022/08/13 01:05:40;;;;;;;15.50;11.80;;;;;;;22.59;90.27;98809.69;4973794;28;20171;-85
2022/08/13 01:08:06;;;;;;;15.60;12.60;;;;;;;22.61;90.27;98804.50;4974285;28;20281;-86
2022/08/13 01:10:32;;;;;;;15.40;12.03;;;;;;;22.47;92.09;98825.31;4973268;28;20168;-85
2022/08/13 01:13:00;;;;;;;14.70;12.17;;;;;;;20.73;94.11;98533.69;4973409;28;20188;-86
2022/08/13 01:15:26;;;;;;;15.67;12.10;;;;;;;21.48;96.94;98665.84;4973209;28;20195;-85
2022/08/13 01:17:53;;;;;;;15.07;12.50;;;;;;;21.45;97.71;98667.63;4973203;28;20164;-85
2022/08/13 01:20:21;;;;;;;16.63;12.70;;;;;;;21.11;97.33;98598.50;4973434;28;20160;-86
2022/08/13 01:22:52;;;;;;;15.43;12.80;;;;;;;22.28;98.63;98816.09;4972777;28;20192;-86
2022/08/13 01:25:27;;;;;;;14.40;12.07;;;;;;;22.10;98.64;98769.94;4972804;28;20160;-86
2022/08/13 01:27:53;;;;;;;15.47;12.47;;;;;;;22.33;98.10;98798.88;4973069;28;20179;-85
2022/08/13 01:30:21;;;;;;;15.47;12.70;;;;;;;22.12;97.44;98752.72;4972835;28;20160;-85
2022/08/13 01:32:47;;;;;;;15.67;12.17;;;;;;;21.72;98.21;98706.81;4973407;28;20184;-84
2022/08/13 01:35:15;;;;;;;15.90;12.20;;;;;;;21.09;98.19;98594.22;4973367;28;20174;-84
2022/08/13 01:37:41;;;;;;;14.43;11.70;;;;;;;22.14;100.00;98799.97;4972602;28;20182;-84
2022/08/13 01:40:07;;;;;;;15.97;12.27;;;;;;;22.03;100.00;98797.50;4972413;28;20219;-85
2022/08/13 01:42:43;;;;;;;16.93;12.57;;;;;;;22.05;100.00;98792.34;4972708;28;20174;-83
2022/08/13 01:45:11;;;;;;;14.97;12.53;;;;;;;21.73;100.00;98760.03;4972302;28;20551;-83
2022/08/13 01:50:30;;;;;;;15.97;12.70;;;;;;;22.00;100.00;98788.97;4972192;28;20737;-84
2022/08/13 01:53:01;;;;;;;16.60;12.57;;;;;;;21.97;100.00;98791.59;4954681;28;20254;-83
2022/08/13 01:55:39;;;;;;;16.57;12.30;;;;;;;21.84;100.00;98771.94;4972061;28;20526;-85
2022/08/13 01:58:29;;;;;;;15.63;12.00;;;;;;;22.03;100.00;98799.25;4972513;28;20171;-85
2022/08/13 02:00:59;;;;;;;16.37;12.27;;;;;;;22.12;100.00;98801.69;4972080;28;20172;-84
2022/08/13 02:03:25;;;;;;;16.43;12.63;;;;;;;21.99;100.00;98782.97;4972292;28;20194;-84
2022/08/13 02:05:51;;;;;;;14.57;11.97;;;;;;;22.19;100.00;98800.78;4972190;28;20171;-85
2022/08/13 02:08:22;;;;;;;15.13;12.43;;;;;;;22.09;100.00;98773.38;4973276;28;20172;-85
2022/08/13 02:10:52;;;;;;;16.10;12.03;;;;;;;21.96;100.00;98769.25;4973260;28;20164;-85
2022/08/13 02:13:21;;;;;;;15.47;12.47;;;;;;;22.10;100.00;98791.41;4973550;28;20184;-85
2022/08/13 02:15:48;;;;;;;18.77;13.07;;;;;;;20.10;100.00;98463.16;4974383;28;20234;-86
2022/08/13 02:18:17;;;;;;;17.40;12.27;;;;;;;21.28;100.00;98665.25;4974829;28;20168;-84
2022/08/13 02:20:56;;;;;;;16.30;12.80;;;;;;;22.03;100.00;98784.63;4978238;28;20578;-84
2022/08/13 02:23:25;;;;;;;17.33;12.90;;;;;;;22.08;100.00;98792.31;4975475;28;20164;-84
2022/08/13 02:25:51;;;;;;;15.70;12.47;;;;;;;21.95;100.00;98783.03;4977842;28;20211;-84
2022/08/13 02:28:21;;;;;;;15.27;12.43;;;;;;;21.77;100.00;98758.28;4975976;28;20186;-85
2022/08/13 02:30:52;;;;;;;15.13;12.43;;;;;;;21.43;99.82;98698.53;4976051;28;20203;-85
2022/08/13 02:33:17;;;;;;;15.47;13.03;;;;;;;22.00;98.82;98791.56;4958705;28;20270;-85
2022/08/13 02:35:44;;;;;;;16.50;13.43;;;;;;;21.98;98.46;98794.13;4976467;28;20637;-86
2022/08/13 02:38:12;;;;;;;15.57;13.50;;;;;;;21.20;97.68;98656.75;4976202;28;20167;-86
2022/08/13 02:43:25;;;;;;;18.20;13.83;;;;;;;21.69;93.35;98730.03;4976510;28;20214;-85
2022/08/13 02:45:56;;;;;;;16.57;13.30;;;;;;;22.07;95.65;98798.31;4976841;28;20165;-85
2022/08/13 02:48:24;;;;;;;19.83;13.60;;;;;;;21.81;95.76;98752.19;4976658;28;20274;-85
2022/08/13 02:50:51;;;;;;;16.77;12.63;;;;;;;22.08;94.95;98802.63;4958841;28;20557;-86
2022/08/13 02:53:19;;;;;;;17.50;12.47;;;;;;;22.07;94.91;98811.22;4975944;28;20692;-85
2022/08/13 02:55:45;;;;;;;17.57;13.37;;;;;;;22.15;92.90;98814.56;4975705;28;20559;-86
2022/08/13 02:58:10;;;;;;;17.77;12.77;;;;;;;22.09;94.08;98819.78;4958382;28;20238;-85
2022/08/13 03:00:37;;;;;;;16.03;13.03;;;;;;;21.98;95.18;98811.31;4975741;28;20612;-86
2022/08/13 03:03:04;;;;;;;18.67;14.23;;;;;;;21.44;96.48;98741.47;4958208;28;20172;-86
2022/08/13 03:05:30;;;;;;;19.73;14.00;;;;;;;20.87;98.60;98681.06;4958171;28;20180;-86
2022/08/13 03:07:57;;;;;;;18.67;13.63;;;;;;;21.50;100.00;98818.69;4975201;28;20352;-86
2022/08/13 03:10:25;;;;;;;18.27;14.17;;;;;;;21.40;100.00;98821.34;4975334;28;20250;-87
2022/08/13 03:13:09;;;;;;;20.03;14.20;;;;;;;20.91;100.00;98761.63;4973838;28;20192;-85
2022/08/13 03:15:38;;;;;;;20.70;14.57;;;;;;;21.30;100.00;98815.41;4974678;28;20206;-83
2022/08/13 03:18:03;;;;;;;18.87;14.90;;;;;;;21.01;100.00;98784.72;4974683;28;20691;-83
2022/08/13 03:20:28;;;;;;;19.33;14.27;;;;;;;21.23;100.00;98824.06;4974893;28;20242;-82
2022/08/13 03:22:58;;;;;;;17.87;13.83;;;;;;;21.25;100.00;98808.59;4974537;28;20179;-85
2022/08/13 03:25:29;;;;;;;20.00;14.37;;;;;;;21.34;100.00;98824.84;4974527;28;20222;-84
2022/08/13 03:27:58;;;;;;;18.40;13.40;;;;;;;21.17;100.00;98806.09;4974730;28;20184;-85
2022/08/13 03:30:24;;;;;;;18.43;13.97;;;;;;;21.32;100.00;98817.97;4974725;28;20532;-85
2022/08/13 03:32:51;;;;;;;17.80;13.87;;;;;;;21.24;100.00;98823.19;4974559;28;20644;-86
2022/08/13 03:35:22;;;;;;;19.27;14.03;;;;;;;20.88;100.00;98757.38;4984380;28;20196;-84
2022/08/13 03:37:54;;;;;;;20.03;14.13;;;;;;;20.86;100.00;98724.81;4997473;28;20243;-84
2022/08/13 03:40:24;;;;;;;17.67;13.97;;;;;;;21.44;100.00;98813.56;4985635;28;20194;-84
2022/08/13 03:42:50;;;;;;;18.07;13.50;;;;;;;21.47;100.00;98803.25;4974369;28;20182;-85
2022/08/13 03:45:18;;;;;;;20.13;14.77;;;;;;;21.60;100.00;98809.97;4974597;28;20166;-83
2022/08/13 03:47:44;;;;;;;20.07;13.47;;;;;;;21.58;100.00;98816.03;4974734;28;20192;-83
2022/08/13 03:50:11;;;;;;;21.70;14.70;;;;;;;21.68;100.00;98821.06;4974140;28;20227;-84
2022/08/13 03:52:37;;;;;;;23.63;14.47;;;;;;;21.71;99.32;98822.75;4956907;28;20660;-84
2022/08/13 03:55:10;;;;;;;19.97;13.33;;;;;;;21.80;99.47;98821.81;4974500;28;20168;-84
2022/08/13 03:57:40;;;;;;;21.97;14.17;;;;;;;21.58;98.54;98791.13;4975184;28;20606;-84
2022/08/13 04:00:09;;;;;;;23.67;17.93;;;;;;;21.80;99.07;98832.97;4974261;28;20164;-84
2022/08/13 04:02:40;;;;;;;26.73;17.57;;;;;;;20.67;98.11;98607.50;4972966;28;20184;-85
2022/08/13 04:05:19;;;;;;;26.07;17.53;;;;;;;21.95;97.93;98821.69;4973944;28;20175;-84
2022/08/13 04:07:44;;;;;;;26.67;18.93;;;;;;;21.31;96.63;98690.09;4973589;28;20641;-84
2022/08/13 04:10:11;;;;;;;27.57;19.23;;;;;;;22.24;95.18;98829.94;4973576;28;20254;-85
2022/08/13 04:12:38;;;;;;;31.30;19.83;;;;;;;21.52;94.00;98693.28;4973921;28;20224;-84
2022/08/13 04:15:06;;;;;;;30.13;19.97;;;;;;;22.22;94.25;98811.88;4973630;28;20616;-84
2022/08/13 04:17:35;;;;;;;27.80;19.57;;;;;;;22.04;96.10;98806.09;4974174;28;20156;-84
2022/08/13 04:20:01;;;;;;;26.97;18.83;;;;;;;22.19;96.13;98836.88;4977464;28;20227;-84
2022/08/13 04:22:27;;;;;;;22.90;16.97;;;;;;;22.14;94.09;98820.59;4984292;28;20179;-84
2022/08/13 04:24:52;;;;;;;26.90;18.00;;;;;;;20.79;94.65;98597.09;4982953;28;20167;-84
2022/08/13 04:27:18;;;;;;;24.60;16.27;;;;;;;22.24;95.24;98828.22;4974816;28;20174;-84
2022/08/13 04:29:43;;;;;;;23.40;15.73;;;;;;;21.85;97.43;98835.50;4974122;28;20644;-84
2022/08/13 04:32:09;;;;;;;20.60;15.77;;;;;;;21.44;100.00;98841.03;4974081;28;20165;-84
2022/08/13 04:34:35;;;;;;;22.10;15.40;;;;;;;21.72;99.58;98843.38;4976610;28;20181;-85
2022/08/13 04:37:03;;;;;;;18.50;14.77;;;;;;;21.16;97.50;98688.53;4975561;28;20160;-84
2022/08/13 04:39:29;;;;;;;20.43;15.17;;;;;;;22.15;96.04;98830.88;4970691;28;20172;-84
2022/08/13 04:41:54;;;;;;;20.93;14.93;;;;;;;22.24;95.28;98835.94;4992327;28;20242;-84
2022/08/13 04:44:20;;;;;;;22.97;16.47;;;;;;;22.17;96.49;98820.53;4991629;28;20171;-83
2022/08/13 04:46:45;;;;;;;19.67;15.17;;;;;;;22.29;96.42;98833.31;4972381;28;20168;-83
2022/08/13 04:49:12;;;;;;;18.50;15.33;;;;;;;22.27;96.78;98837.63;4978724;28;20304;-85
2022/08/13 04:51:38;;;;;;;22.37;15.77;;;;;;;21.07;95.34;98624.25;4974513;28;20634;-83
2022/08/13 04:54:04;;;;;;;21.73;16.37;;;;;;;22.31;93.49;98800.59;4973814;28;20192;-83
2022/08/13 04:56:29;;;;;;;20.23;15.50;;;;;;;22.13;92.31;98747.56;4956572;28;20263;-83
2022/08/13 04:58:55;;;;;;;17.87;15.73;;;;;;;22.70;92.04;98828.47;4973308;28;20169;-84
2022/08/13 05:01:21;;;;;;;20.53;15.63;;;;;;;22.17;91.80;98735.44;4973833;28;20172;-83
2022/08/13 05:03:46;;;;;;;24.27;16.37;;;;;;;22.80;90.95;98801.66;4973200;28;20230;-83
2022/08/13 05:06:17;;;;;;;23.53;15.97;;;;;;;22.96;90.01;98822.09;4971587;28;20168;-83
2022/08/13 05:08:43;;;;;;;22.07;15.37;;;;;;;22.91;88.88;98783.41;4955769;28;20172;-83
2022/08/13 05:11:12;;;;;;;20.43;15.03;;;;;;;22.80;83.71;98711.31;4972811;28;20180;-83
2022/08/13 05:13:38;;;;;;;17.93;14.20;;;;;;;22.96;81.67;98721.41;4973367;28;20578;-83
2022/08/13 05:16:07;;;;;;;20.13;13.13;;;;;;;23.80;81.36;98823.25;4972592;28;20199;-84
2022/08/13 05:18:36;;;;;;;18.87;12.80;;;;;;;24.14;75.23;98825.22;4969954;28;20176;-84
2022/08/13 05:21:03;;;;;;;16.97;13.07;;;;;;;23.52;73.05;98707.47;4979196;28;20167;-85
2022/08/13 05:23:30;;;;;;;15.20;12.63;;;;;;;23.19;71.20;98639.19;4995699;28;20168;-84
2022/08/13 05:25:58;;;;;;;18.73;13.10;;;;;;;23.44;72.27;98684.38;5007319;28;20206;-84
2022/08/13 05:28:24;;;;;;;16.17;12.70;;;;;;;23.12;71.66;98609.22;4978276;28;20242;-81
2022/08/13 05:30:51;;;;;;;18.40;13.03;;;;;;;24.59;71.19;98813.91;4979568;28;20176;-84
2022/08/13 05:33:20;;;;;;;16.63;12.97;;;;;;;24.08;71.04;98728.75;4983396;28;20188;-85
2022/08/13 05:35:49;;;;;;;16.23;13.23;;;;;;;24.63;71.17;98823.31;4982156;28;20164;-85
2022/08/13 05:38:16;;;;;;;16.00;13.23;;;;;;;24.51;72.88;98823.56;4974572;28;20641;-86
2022/08/13 05:40:43;;;;;;;18.23;13.70;;;;;;;24.43;73.22;98818.56;4972675;28;20164;-85
2022/08/13 05:43:14;;;;;;;19.83;13.70;;;;;;;24.55;73.75;98820.06;4972915;28;20246;-84
2022/08/13 05:45:47;;;;;;;16.30;13.00;;;;;;;24.73;72.98;98809.28;4972775;28;20169;-84
2022/08/13 05:48:13;;;;;;;15.50;12.87;;;;;;;24.67;69.72;98780.09;4974321;28;20226;-86
2022/08/13 05:50:42;;;;;;;15.73;12.90;;;;;;;24.13;68.01;98655.38;4978191;28;20232;-81
2022/08/13 05:53:10;;;;;;;17.70;12.70;;;;;;;21.70;65.62;98219.00;4975773;28;20250;-83
2022/08/13 05:55:37;;;;;;;17.50;12.73;;;;;;;24.74;64.95;98699.66;4984187;28;20156;-83
2022/08/13 05:58:04;;;;;;;20.63;12.80;;;;;;;24.74;63.06;98667.72;4997254;28;20156;-83
2022/08/13 06:03:24;;;;;;;16.20;12.97;;;;;;;25.38;60.13;98703.22;4978083;28;20532;-83
2022/08/13 06:05:53;;;;;;;17.30;12.30;;;;;;;25.49;60.76;98756.50;4984577;28;20187;-83
2022/08/13 06:08:24;;;;;;;15.70;12.23;;;;;;;26.08;58.95;98811.06;4983953;28;20171;-84
2022/08/13 06:10:49;;;;;;;16.83;12.50;;;;;;;26.14;58.10;98785.00;4986109;28;20168;-84
2022/08/13 06:13:16;;;;;;;16.37;12.57;;;;;;;26.41;57.63;98806.69;4981186;28;20187;-85
2022/08/13 06:15:57;;;;;;;16.10;12.27;;;;;;;26.06;56.49;98684.00;5008174;28;20267;-87
2022/08/13 06:18:29;;;;;;;18.10;12.48;;;;;;;26.99;54.87;98801.44;4993844;28;20159;-87
2022/08/13 06:20:56;;;;;;;20.95;13.65;;;;;;;26.88;55.01;98795.75;4993643;28;20165;-82
2022/08/13 06:23:24;;;;;;;16.70;12.82;;;;;;;27.23;54.09;98798.06;4980415;28;20163;-87
2022/08/13 06:25:51;;;;;;;17.65;13.00;;;;;;;27.50;53.28;98802.34;4976750;28;20586;-85
2022/08/13 06:28:19;;;;;;;17.55;13.13;;;;;;;27.15;53.31;98765.41;4976127;28;20258;-85
2022/08/13 06:30:47;;;;;;;17.90;13.30;;;;;;;26.08;54.02;98643.28;4976385;28;20175;-84
2022/08/13 06:33:13;;;;;;;18.38;12.60;;;;;;;27.20;53.53;98761.75;5007115;28;20638;-85
2022/08/13 06:35:40;;;;;;;18.98;12.63;;;;;;;27.40;53.21;98800.09;4975774;28;20269;-85
2022/08/13 06:38:06;;;;;;;17.98;13.32;;;;;;;25.86;53.70;98569.59;4975834;28;20171;-86
2022/08/13 06:40:35;;;;;;;15.80;13.38;;;;;;;27.33;54.24;98799.44;4975780;28;20170;-85
2022/08/13 06:43:02;;;;;;;21.80;13.75;;;;;;;27.08;54.15;98751.78;4975462;28;20181;-85
2022/08/13 06:45:30;;;;;;;17.35;13.20;;;;;;;27.26;54.05;98765.91;4975315;28;20179;-85
2022/08/13 06:47:57;;;;;;;17.05;14.20;;;;;;;26.62;55.17;98671.84;4975603;28;20198;-85
2022/08/13 06:50:23;;;;;;;17.88;13.65;;;;;;;26.88;53.26;98656.31;4976683;28;20597;-85
2022/08/13 06:52:48;;;;;;;18.60;14.27;;;;;;;27.32;54.19;98781.31;4976833;28;20196;-85
2022/08/13 06:55:15;;;;;;;15.63;13.52;;;;;;;27.18;54.39;98788.69;4976301;28;20167;-85
2022/08/13 06:57:41;;;;;;;16.48;13.35;;;;;;;26.37;55.26;98676.97;4975242;28;20225;-84
2022/08/13 07:00:10;;;;;;;17.63;13.25;;;;;;;26.59;54.85;98729.09;4975505;28;20175;-85
2022/08/13 07:02:40;;;;;;;19.02;13.23;;;;;;;27.02;53.14;98700.00;4976645;28;20270;-86
2022/08/13 07:05:06;;;;;;;19.52;13.35;;;;;;;27.51;51.60;98681.84;4976295;28;20171;-86
2022/08/13 07:07:33;;;;;;;16.92;13.00;;;;;;;28.15;50.57;98728.94;4958452;28;20629;-85
2022/08/13 07:10:00;;;;;;;18.30;12.90;;;;;;;28.66;49.68;98794.66;4975395;28;20621;-86
2022/08/13 07:12:25;;;;;;;17.08;12.57;;;;;;;28.81;48.07;98771.53;4977642;28;20634;-84
2022/08/13 07:14:51;;;;;;;17.30;12.68;;;;;;;28.87;48.22;98792.97;4975227;28;20171;-84
2022/08/13 07:17:17;;;;;;;15.00;12.75;;;;;;;28.95;48.53;98803.91;4973575;28;20552;-84
2022/08/13 07:19:42;;;;;;;16.33;12.27;;;;;;;27.64;47.39;98601.59;4974875;28;20257;-84
2022/08/13 07:22:08;;;;;;;16.20;11.75;;;;;;;28.49;47.20;98671.16;4975274;28;20175;-84
2022/08/13 07:24:33;;;;;;;15.85;12.15;;;;;;;28.06;46.30;98586.97;4974777;28;20167;-84
2022/08/13 07:27:04;;;;;;;15.80;11.02;;;;;;;29.14;45.71;98791.88;4989431;28;20666;-84
2022/08/13 07:29:32;;;;;;;13.07;10.40;;;;;;;29.29;44.57;98792.16;4973600;28;20566;-84
2022/08/13 07:32:01;;;;;;;12.88;9.50;;;;;;;28.67;43.50;98619.22;4975479;28;20236;-84
2022/08/13 07:34:28;;;;;;;14.10;10.15;;;;;;;28.11;43.20;98482.66;4975253;28;20286;-84
2022/08/13 07:36:56;;;;;;;15.77;10.70;;;;;;;29.00;43.62;98643.00;4973402;28;20187;-84
2022/08/13 07:39:22;;;;;;;13.95;10.88;;;;;;;30.10;43.11;98738.16;4974500;28;20166;-84
2022/08/13 07:41:48;;;;;;;14.57;11.48;;;;;;;30.35;42.58;98763.06;4974549;28;20175;-84
2022/08/13 07:44:22;;;;;;;12.65;10.95;;;;;;;29.89;42.85;98674.72;4974559;28;20192;-83
2022/08/13 07:46:49;;;;;;;14.07;11.48;;;;;;;30.21;42.63;98683.66;4957544;28;20202;-84
2022/08/13 07:49:16;;;;;;;14.25;12.05;;;;;;;30.29;42.69;98773.81;4974271;28;20223;-83
2022/08/13 07:51:42;;;;;;;17.17;11.90;;;;;;;30.21;42.28;98747.22;4974886;28;20533;-86
2022/08/13 07:54:10;;;;;;;14.65;12.00;;;;;;;30.57;42.09;98783.00;4974559;28;20195;-84
2022/08/13 07:56:36;;;;;;;14.70;12.50;;;;;;;30.02;42.91;98714.16;4974297;28;20181;-84
2022/08/13 07:59:11;;;;;;;16.30;12.52;;;;;;;30.36;42.54;98775.25;4974310;28;20164;-85
2022/08/13 08:02:06;;;;;;;15.93;13.20;;;;;;;30.87;41.92;98785.03;4974338;28;20174;-85
2022/08/13 08:04:34;;;;;;;16.50;13.40;;;;;;;30.92;42.15;98759.53;4933724;29;20187;-85
2022/08/13 08:07:01;;;;;;;16.33;13.00;;;;;;;30.69;42.01;98685.72;4933656;29;20191;-85
2022/08/13 08:09:29;;;;;;;16.42;13.80;;;;;;;31.00;41.73;98739.97;4935853;29;20620;-85
2022/08/13 08:14:41;;;;;;;16.77;13.43;;;;;;;30.66;42.40;98723.28;4948630;29;20722;-85
2022/08/13 08:17:11;;;;;;;19.83;13.82;;;;;;;30.91;42.50;98749.09;4950389;28;20172;-85
2022/08/13 08:19:42;;;;;;;15.88;13.13;;;;;;;31.56;41.73;98758.94;4959704;28;20153;-84
2022/08/13 08:22:12;;;;;;;18.13;13.60;;;;;;;31.78;40.46;98733.31;4923838;29;20209;-84
2022/08/13 08:24:38;;;;;;;17.08;13.75;;;;;;;31.82;40.53;98755.81;4898886;29;20561;-85
2022/08/13 08:27:10;;;;;;;18.08;15.13;;;;;;;31.91;40.86;98744.84;4917551;29;20265;-84
2022/08/13 08:29:40;;;;;;;18.33;14.32;;;;;;;32.11;40.45;98741.19;4920880;29;20217;-87
2022/08/13 08:32:08;;;;;;;16.13;14.43;;;;;;;30.91;41.74;98676.72;4917720;29;20177;-85
2022/08/13 08:34:35;;;;;;;18.23;14.68;;;;;;;30.99;41.45;98667.72;4914662;29;20225;-85
2022/08/13 08:37:02;;;;;;;17.85;15.10;;;;;;;31.81;40.64;98755.91;4898363;29;20189;-82
2022/08/13 08:45:00;;;;;;;19.52;14.73;;;;;;;31.36;40.78;98610.78;4955012;29;20175;-86
2022/08/13 08:47:37;;;;;;;22.75;16.58;;;;;;;32.04;40.89;98737.19;4953049;29;20281;-87
2022/08/13 08:50:05;;;;;;;22.55;15.68;;;;;;;31.38;41.06;98585.38;4955049;29;20602;-86
2022/08/13 08:55:16;;;;;;;16.90;15.07;;;;;;;31.29;39.73;98501.28;4955240;29;20178;-87
2022/08/13 08:57:44;;;;;;;17.27;14.80;;;;;;;32.15;39.02;98587.28;4968591;28;20179;-85
2022/08/13 09:00:15;;;;;;;21.88;15.32;;;;;;;32.89;38.53;98709.69;4953900;29;20165;-84
2022/08/13 09:02:42;;;;;;;21.75;19.15;;;;;;;32.99;38.60;98710.84;4953472;29;20247;-83
2022/08/13 09:05:14;;;;;;;24.98;15.85;;;;;;;31.91;39.12;98600.81;4954056;28;20232;-84
2022/08/13 09:07:42;;;;;;;17.65;15.15;;;;;;;31.70;39.31;98449.34;4953765;29;20192;-85
2022/08/13 09:10:09;;;;;;;19.02;15.48;;;;;;;32.04;39.59;98573.03;4953933;29;20168;-85
2022/08/13 09:12:42;;;;;;;21.17;14.75;;;;;;;33.00;38.82;98693.34;4953601;29;20168;-84
2022/08/13 09:15:08;;;;;;;20.08;14.88;;;;;;;31.87;38.78;98522.50;4968225;28;20235;-84
2022/08/13 09:17:36;;;;;;;19.90;14.85;;;;;;;32.24;38.67;98516.03;4954689;29;20164;-84
2022/08/13 09:20:03;;;;;;;15.52;13.85;;;;;;;32.81;38.22;98651.59;4953605;29;20227;-85
2022/08/13 09:22:28;;;;;;;16.88;14.60;;;;;;;33.22;37.86;98673.66;4953783;29;20592;-84
2022/08/13 09:24:58;;;;;;;17.58;14.63;;;;;;;32.69;38.08;98612.97;4953637;29;20169;-84
2022/08/13 09:27:26;;;;;;;17.50;14.32;;;;;;;33.09;37.22;98649.09;4953391;29;20549;-84
2022/08/13 09:29:51;;;;;;;18.90;14.50;;;;;;;32.80;37.93;98654.34;4953797;29;20610;-85
2022/08/13 09:32:17;;;;;;;17.23;14.25;;;;;;;33.40;37.35;98663.84;4967661;28;20192;-85
2022/08/13 09:34:46;;;;;;;19.13;14.75;;;;;;;33.23;37.57;98670.09;4954647;29;20283;-86
2022/08/13 09:37:13;;;;;;;16.70;14.65;;;;;;;32.57;37.48;98521.97;4953708;29;20230;-85
2022/08/13 09:39:53;;;;;;;17.73;15.43;;;;;;;33.29;37.24;98602.44;4976295;28;20172;-84
2022/08/13 09:42:25;;;;;;;18.52;14.57;;;;;;;32.82;35.68;98501.19;4953709;29;20175;-85
2022/08/13 09:44:56;;;;;;;19.27;14.38;;;;;;;33.72;36.49;98633.84;4954149;29;20223;-85
2022/08/13 09:47:23;;;;;;;17.20;14.80;;;;;;;33.32;36.79;98636.34;4953851;29;20618;-84
2022/08/13 09:49:49;;;;;;;19.45;14.70;;;;;;;33.43;37.03;98621.63;4953497;29;20281;-85
2022/08/13 09:52:20;;;;;;;19.35;14.05;;;;;;;33.96;36.18;98657.72;4953454;28;20728;-85
2022/08/13 09:54:49;;;;;;;20.42;14.02;;;;;;;33.56;36.03;98632.22;4953435;29;20748;-83
2022/08/13 09:57:19;;;;;;;19.10;14.02;;;;;;;33.70;35.60;98650.63;4953602;29;20713;-84
2022/08/13 09:59:44;;;;;;;15.82;13.77;;;;;;;32.98;35.93;98588.50;4952984;29;20298;-84
2022/08/13 10:02:12;;;;;;;14.63;13.02;;;;;;;32.73;35.17;98540.22;4953061;29;20626;-87
2022/08/13 10:04:39;;;;;;;15.52;13.88;;;;;;;32.93;34.99;98537.25;4953242;29;20155;-85
2022/08/13 10:07:07;;;;;;;18.70;13.60;;;;;;;33.64;36.18;98640.50;4952324;29;20252;-84
2022/08/13 10:09:34;;;;;;;17.27;13.85;;;;;;;32.63;35.36;98527.66;4967761;28;20196;-84
2022/08/13 10:12:04;;;;;;;18.60;14.20;;;;;;;33.06;36.26;98646.63;4953099;29;20176;-84
2022/08/13 10:14:31;;;;;;;17.27;14.23;;;;;;;32.40;36.57;98511.59;4953227;29;20748;-85
2022/08/13 10:16:57;;;;;;;15.48;13.40;;;;;;;33.33;35.51;98589.00;4953370;29;20249;-84
2022/08/13 10:19:23;;;;;;;15.00;13.40;;;;;;;33.97;34.47;98616.53;4952991;29;20157;-84
2022/08/13 10:21:48;;;;;;;14.77;13.18;;;;;;;33.24;33.86;98490.69;4952898;29;20644;-84
2022/08/13 10:24:13;;;;;;;15.10;13.50;;;;;;;33.80;34.35;98597.44;4953789;29;20153;-84
2022/08/13 10:26:40;;;;;;;14.13;12.57;;;;;;;33.66;33.71;98617.59;4953104;29;20153;-84
2022/08/13 10:29:09;;;;;;;15.68;12.88;;;;;;;33.28;35.00;98624.34;4954310;29;20236;-84
2022/08/13 10:31:35;;;;;;;14.10;12.35;;;;;;;32.70;33.61;98494.06;4969228;28;20169;-86
2022/08/13 10:34:03;;;;;;;13.75;11.25;;;;;;;32.35;32.34;98414.91;4953296;29;20196;-85
2022/08/13 10:36:30;;;;;;;15.60;10.98;;;;;;;31.72;32.97;98327.91;4954504;29;20168;-84
2022/08/13 10:38:55;;;;;;;13.20;11.80;;;;;;;31.76;33.61;98409.69;4958305;29;20220;-84
2022/08/13 10:41:21;;;;;;;15.68;11.75;;;;;;;32.83;33.48;98509.88;4972032;28;20169;-83
2022/08/13 10:43:48;;;;;;;17.08;12.32;;;;;;;32.47;33.50;98512.94;4970800;28;20197;-85
2022/08/13 10:46:20;;;;;;;14.18;11.40;;;;;;;31.47;33.96;98362.50;4960313;29;20180;-85
2022/08/13 10:48:55;;;;;;;15.65;12.55;;;;;;;31.00;34.42;98230.94;4977912;28;20243;-84
2022/08/13 10:51:23;;;;;;;14.05;11.60;;;;;;;32.16;33.68;98356.69;4975714;28;20148;-84
2022/08/13 10:54:00;;;;;;;13.52;11.90;;;;;;;33.51;33.25;98597.53;4975828;28;20192;-84
2022/08/13 10:56:28;;;;;;;14.10;11.85;;;;;;;33.75;32.48;98601.28;4975747;28;20243;-83
2022/08/13 10:58:55;;;;;;;15.15;12.05;;;;;;;34.10;32.68;98602.53;4957987;28;20550;-83
2022/08/13 11:01:23;;;;;;;13.55;10.93;;;;;;;33.45;31.80;98546.25;4957908;28;20187;-84
2022/08/13 11:03:49;;;;;;;12.82;11.43;;;;;;;33.10;31.54;98477.59;4975707;28;20191;-83
2022/08/13 11:06:15;;;;;;;13.13;10.60;;;;;;;31.99;32.01;98341.13;4975259;28;20620;-82
2022/08/13 11:08:41;;;;;;;12.55;10.50;;;;;;;33.50;32.10;98546.81;4975052;28;20187;-83
2022/08/13 11:11:08;;;;;;;13.05;10.32;;;;;;;33.89;31.16;98561.84;4974820;28;20168;-82
2022/08/13 11:13:36;;;;;;;11.30;10.20;;;;;;;33.78;31.08;98569.56;4975312;28;20188;-84
2022/08/13 11:16:03;;;;;;;13.55;10.73;;;;;;;33.60;31.95;98521.69;4958354;28;20271;-83
2022/08/13 11:18:29;;;;;;;16.60;10.88;;;;;;;32.97;31.91;98418.09;4975098;28;20179;-82
2022/08/13 11:21:06;;;;;;;13.13;10.63;;;;;;;33.70;31.39;98587.59;4975268;28;20164;-84
2022/08/13 11:23:32;;;;;;;14.43;10.68;;;;;;;33.91;31.44;98591.47;4974970;28;20163;-83
2022/08/13 11:25:58;;;;;;;11.23;9.88;;;;;;;33.60;31.48;98539.22;4974854;28;20199;-83
2022/08/13 11:28:24;;;;;;;12.20;9.73;;;;;;;33.82;30.76;98584.19;4969879;28;20172;-84
2022/08/13 11:30:51;;;;;;;12.00;10.18;;;;;;;32.69;30.80;98375.25;4974439;28;20168;-83
2022/08/13 11:33:18;;;;;;;13.30;9.68;;;;;;;33.89;31.06;98582.88;4974484;28;20777;-83
2022/08/13 11:35:44;;;;;;;11.85;10.48;;;;;;;33.77;31.00;98575.75;4974459;28;20156;-82
2022/08/13 11:38:12;;;;;;;13.80;10.52;;;;;;;34.63;30.38;98574.53;4974390;28;20160;-83
2022/08/13 11:40:38;;;;;;;13.52;10.75;;;;;;;35.17;29.63;98577.81;4974522;28;20303;-83
2022/08/13 11:43:04;;;;;;;12.27;9.80;;;;;;;35.11;29.06;98571.19;4974652;28;20223;-83